Time,TemperatureF,DewpointF,PressureIn,WindDirection,WindDirectionDegrees,WindSpeedMPH,WindSpeedGustMPH,Humidity,HourlyPrecipIn,Conditions,Clouds,dailyrainin,SoftwareType,DateUTC
2013-02-25 00:01:00,30.0,30.0,29.79,North,360,0.0,0.0,100,0.00,,,0.00,WSDL version 423,2013-02-25 05:01:00,
2013-02-25 00:11:00,30.0,30.0,29.80,North,360,0.0,0.0,100,0.00,,,0.00,WSDL version 423,2013-02-25 05:11:00,
2013-02-25 00:21:00,30.0,30.0,29.80,North,360,0.0,0.0,100,0.00,,,0.00,WSDL version 423,2013-02-25 05:21:00,
2013-02-25 00:31:00,29.8,29.8,29.80,North,360,0.0,0.0,100,0.00,,,0.00,WSDL version 423,2013-02-25 05:31:00,
2013-02-25 00:41:00,29.7,29.7,29.81,North,360,0.0,0.0,100,0.00,,,0.00,WSDL version 423,2013-02-25 05:41:00,
2013-02-25 00:51:00,29.7,29.7,29.81,North,360,0.0,0.0,100,0.00,,,0.00,WSDL version 423,2013-02-25 05:51:00,
2013-02-25 01:01:00,29.5,29.5,29.82,North,360,0.0,0.0,100,0.00,,,0.00,WSDL version 423,2013-02-25 06:01:00,
2013-02-25 01:11:00,29.5,29.5,29.83,North,360,0.0,0.0,100,0.00,,,0.00,WSDL version 423,2013-02-25 06:11:00,
2013-02-25 01:21:00,29.3,29.3,29.82,North,360,0.0,0.0,100,0.00,,,0.00,WSDL version 423,2013-02-25 06:21:00,
2013-02-25 01:31:00,29.3,29.3,29.82,North,360,0.0,0.0,100,0.00,,,0.00,WSDL version 423,2013-02-25 06:31:00,
2013-02-25 01:41:00,29.3,29.3,29.83,North,360,0.0,0.0,100,0.00,,,0.00,WSDL version 423,2013-02-25 06:41:00,
2013-02-25 01:51:00,29.5,29.5,29.83,North,360,0.0,0.0,100,0.00,,,0.00,WSDL version 423,2013-02-25 06:51:00,
2013-02-25 02:01:00,29.5,29.5,29.83,North,360,0.0,0.0,100,0.00,,,0.00,WSDL version 423,2013-02-25 07:01:00,
2013-02-25 02:11:00,29.5,29.5,29.83,North,360,0.0,0.0,100,0.00,,,0.00,WSDL version 423,2013-02-25 07:11:00,
2013-02-25 02:21:00,29.5,29.5,29.83,North,360,0.0,0.0,100,0.00,,,0.00,WSDL version 423,2013-02-25 07:21:00,
2013-02-25 02:31:00,29.5,29.5,29.83,North,360,0.0,0.0,100,0.00,,,0.00,WSDL version 423,2013-02-25 07:31:00,
2013-02-25 02:41:00,29.5,29.5,29.84,North,360,0.0,0.0,100,0.00,,,0.00,WSDL version 423,2013-02-25 07:41:00,
2013-02-25 02:51:00,29.5,29.5,29.84,North,360,0.0,0.0,100,0.00,,,0.00,WSDL version 423,2013-02-25 07:51:00,
2013-02-25 03:01:00,29.5,29.5,29.84,North,360,0.0,0.0,100,0.00,,,0.00,WSDL version 423,2013-02-25 08:01:00,
2013-02-25 03:11:00,29.5,29.5,29.84,North,360,0.0,0.0,100,0.00,,,0.00,WSDL version 423,2013-02-25 08:11:00,
2013-02-25 03:21:00,29.5,29.5,29.84,North,360,0.0,0.0,100,0.00,,,0.00,WSDL version 423,2013-02-25 08:21:00,
2013-02-25 03:31:00,29.5,29.5,29.85,North,360,0.0,0.0,100,0.00,,,0.00,WSDL version 423,2013-02-25 08:31:00,
2013-02-25 03:41:00,29.5,29.5,29.84,North,360,0.0,0.0,100,0.00,,,0.00,WSDL version 423,2013-02-25 08:41:00,
2013-02-25 03:51:00,29.5,29.5,29.85,North,360,0.0,0.0,100,0.00,,,0.00,WSDL version 423,2013-02-25 08:51:00,
2013-02-25 04:01:00,29.5,29.5,29.85,North,360,0.0,0.0,100,0.00,,,0.00,WSDL version 423,2013-02-25 09:01:00,
2013-02-25 04:11:00,29.5,29.5,29.86,North,360,0.0,0.0,100,0.00,,,0.00,WSDL version 423,2013-02-25 09:11:00,
2013-02-25 04:21:00,29.5,29.5,29.87,North,360,0.0,0.0,100,0.00,,,0.00,WSDL version 423,2013-02-25 09:21:00,
2013-02-25 04:31:00,29.7,29.7,29.87,North,360,0.0,0.0,100,0.00,,,0.00,WSDL version 423,2013-02-25 09:31:00,
2013-02-25 04:41:00,29.6,29.6,29.88,North,360,0.0,0.0,100,0.00,,,0.00,WSDL version 423,2013-02-25 09:41:00,
2013-02-25 04:51:00,29.7,29.7,29.88,North,360,0.0,0.0,100,0.00,,,0.00,WSDL version 423,2013-02-25 09:51:00,
2013-02-25 05:01:00,29.7,29.7,29.88,North,360,0.0,0.0,100,0.00,,,0.00,WSDL version 423,2013-02-25 10:01:00,
2013-02-25 05:11:00,29.6,29.6,29.88,North,360,0.0,0.0,100,0.00,,,0.00,WSDL version 423,2013-02-25 10:11:00,
2013-02-25 05:21:00,29.5,29.5,29.89,North,360,0.0,0.0,100,0.00,,,0.00,WSDL version 423,2013-02-25 10:21:00,
2013-02-25 05:31:00,29.0,29.0,29.89,North,360,0.0,0.0,100,0.00,,,0.00,WSDL version 423,2013-02-25 10:31:00,
2013-02-25 05:41:00,28.9,28.9,29.89,North,360,0.0,0.0,100,0.00,,,0.00,WSDL version 423,2013-02-25 10:41:00,
2013-02-25 05:51:00,28.6,28.6,29.90,North,360,0.0,0.0,100,0.00,,,0.00,WSDL version 423,2013-02-25 10:51:00,
2013-02-25 06:01:00,28.6,28.6,29.91,North,360,0.0,0.0,100,0.00,,,0.00,WSDL version 423,2013-02-25 11:01:00,
2013-02-25 06:11:00,28.6,28.6,29.91,North,360,0.0,0.0,100,0.00,,,0.00,WSDL version 423,2013-02-25 11:11:00,
2013-02-25 06:21:00,28.7,28.7,29.91,North,360,0.0,0.0,100,0.00,,,0.00,WSDL version 423,2013-02-25 11:21:00,
2013-02-25 06:31:00,28.8,28.8,29.92,North,360,0.0,0.0,100,0.00,,,0.00,WSDL version 423,2013-02-25 11:31:00,
2013-02-25 06:41:00,28.8,28.8,29.92,North,360,0.0,0.0,100,0.00,,,0.00,WSDL version 423,2013-02-25 11:41:00,
2013-02-25 06:51:00,29.0,29.0,29.92,North,360,0.0,0.0,100,0.00,,,0.00,WSDL version 423,2013-02-25 11:51:00,
2013-02-25 07:01:00,29.5,29.5,29.93,North,360,0.0,0.0,100,0.00,,,0.00,WSDL version 423,2013-02-25 12:01:00,
2013-02-25 07:11:00,29.7,29.7,29.93,North,360,0.0,0.0,100,0.00,,,0.00,WSDL version 423,2013-02-25 12:11:00,
2013-02-25 07:21:00,30.2,30.2,29.94,North,360,0.0,0.0,100,0.00,,,0.00,WSDL version 423,2013-02-25 12:21:00,
2013-02-25 07:31:00,30.9,30.9,29.94,North,360,0.0,0.0,100,0.00,,,0.00,WSDL version 423,2013-02-25 12:31:00,
2013-02-25 07:41:00,31.5,31.5,29.94,North,360,0.0,0.0,100,0.00,,,0.00,WSDL version 423,2013-02-25 12:41:00,
2013-02-25 07:52:00,31.8,31.8,29.94,North,360,0.0,0.0,100,0.00,,,0.00,WSDL version 423,2013-02-25 12:52:00,
2013-02-25 08:02:00,32.0,32.0,29.95,North,360,0.0,0.0,100,0.00,,,0.00,WSDL version 423,2013-02-25 13:02:00,
2013-02-25 08:12:00,32.0,32.0,29.96,North,360,0.0,0.0,100,0.00,,,0.00,WSDL version 423,2013-02-25 13:12:00,
2013-02-25 08:21:00,32.2,32.2,29.96,North,360,0.0,0.0,100,0.00,,,0.00,WSDL version 423,2013-02-25 13:21:00,
2013-02-25 08:32:00,32.4,32.4,29.96,North,360,0.0,0.0,100,0.00,,,0.00,WSDL version 423,2013-02-25 13:32:00,
2013-02-25 08:42:00,32.5,32.5,29.96,North,360,0.0,0.0,100,0.00,,,0.00,WSDL version 423,2013-02-25 13:42:00,
2013-02-25 08:51:00,33.4,33.4,29.96,North,360,0.0,0.0,100,0.00,,,0.00,WSDL version 423,2013-02-25 13:51:00,
2013-02-25 09:01:00,34.7,34.7,29.96,North,360,0.0,0.0,100,0.00,,,0.00,WSDL version 423,2013-02-25 14:01:00,
2013-02-25 09:12:00,35.3,35.3,29.97,NW,315,0.0,0.0,100,0.00,,,0.00,WSDL version 423,2013-02-25 14:12:00,
2013-02-25 09:22:00,35.6,35.6,29.97,NW,315,0.0,0.0,100,0.00,,,0.00,WSDL version 423,2013-02-25 14:22:00,
2013-02-25 09:32:00,35.2,35.2,29.98,NW,315,0.0,0.0,100,0.00,,,0.00,WSDL version 423,2013-02-25 14:32:00,
2013-02-25 09:42:00,34.7,34.7,29.98,NW,318,0.0,0.0,100,0.00,,,0.00,WSDL version 423,2013-02-25 14:42:00,
2013-02-25 09:52:00,34.9,34.9,29.99,NNW,338,0.0,0.0,100,0.00,,,0.00,WSDL version 423,2013-02-25 14:52:00,
2013-02-25 10:02:00,35.0,35.0,29.99,NNW,338,0.0,0.0,100,0.00,,,0.00,WSDL version 423,2013-02-25 15:02:00,
2013-02-25 10:12:00,34.9,34.9,29.99,NNE,23,0.0,0.0,100,0.00,,,0.00,WSDL version 423,2013-02-25 15:12:00,
2013-02-25 10:22:00,34.9,34.9,29.99,NNE,23,0.0,0.0,100,0.00,,,0.00,WSDL version 423,2013-02-25 15:22:00,
2013-02-25 10:32:00,35.0,35.0,30.00,North,360,0.0,0.0,100,0.04,,,0.04,WSDL version 423,2013-02-25 15:32:00,
2013-02-25 10:42:00,35.2,35.2,30.00,NW,315,0.0,0.0,100,0.04,,,0.04,WSDL version 423,2013-02-25 15:42:00,
2013-02-25 10:52:00,35.3,35.3,30.00,NW,315,0.0,0.0,100,0.04,,,0.04,WSDL version 423,2013-02-25 15:52:00,
2013-02-25 11:02:00,35.9,35.9,29.99,NW,315,0.0,0.0,100,0.04,,,0.04,WSDL version 423,2013-02-25 16:02:00,
2013-02-25 11:12:00,36.1,36.1,30.00,NW,315,0.0,0.0,100,0.04,,,0.04,WSDL version 423,2013-02-25 16:12:00,
2013-02-25 11:22:00,36.0,36.0,30.00,NW,315,0.0,0.0,100,0.04,,,0.04,WSDL version 423,2013-02-25 16:22:00,
2013-02-25 11:32:00,36.4,36.4,30.00,NW,315,0.0,0.0,100,0.00,,,0.04,WSDL version 423,2013-02-25 16:32:00,
2013-02-25 11:42:00,37.1,37.1,30.00,NW,315,0.0,0.0,100,0.00,,,0.04,WSDL version 423,2013-02-25 16:42:00,
2013-02-25 11:52:00,36.8,36.8,30.00,NW,315,0.0,0.0,100,0.00,,,0.04,WSDL version 423,2013-02-25 16:52:00,
2013-02-25 12:02:00,37.7,37.7,30.00,NW,315,0.0,0.0,100,0.00,,,0.04,WSDL version 423,2013-02-25 17:02:00,
2013-02-25 12:12:00,37.6,37.6,30.00,NNE,23,0.0,0.0,100,0.04,,,0.08,WSDL version 423,2013-02-25 17:12:00,
2013-02-25 12:22:00,37.1,37.1,30.00,NNE,23,0.0,0.0,100,0.04,,,0.08,WSDL version 423,2013-02-25 17:22:00,
2013-02-25 12:32:00,38.7,38.7,30.00,SW,225,0.0,0.0,100,0.04,,,0.08,WSDL version 423,2013-02-25 17:32:00,
2013-02-25 12:42:00,38.9,38.9,30.00,NNE,31,0.0,3.1,100,0.08,,,0.13,WSDL version 423,2013-02-25 17:42:00,
2013-02-25 12:52:00,39.1,39.1,30.00,NNE,23,0.0,2.2,100,0.08,,,0.13,WSDL version 423,2013-02-25 17:52:00,
2013-02-25 13:02:00,39.8,39.8,30.01,West,270,0.0,0.0,100,0.12,,,0.17,WSDL version 423,2013-02-25 18:02:00,
2013-02-25 13:12:00,39.8,39.8,30.02,NW,315,0.0,0.0,100,0.08,,,0.17,WSDL version 423,2013-02-25 18:12:00,
2013-02-25 13:22:00,39.6,39.6,30.02,North,360,0.0,0.0,100,0.08,,,0.17,WSDL version 423,2013-02-25 18:22:00,
2013-02-25 13:32:00,40.6,40.6,30.02,NNW,338,0.0,0.0,100,0.08,,,0.17,WSDL version 423,2013-02-25 18:32:00,
2013-02-25 13:42:00,41.1,41.1,30.03,NNW,338,0.0,0.0,100,0.08,,,0.21,WSDL version 423,2013-02-25 18:42:00,
2013-02-25 13:52:00,41.1,41.1,30.03,NNW,338,0.0,0.0,100,0.08,,,0.21,WSDL version 423,2013-02-25 18:52:00,
2013-02-25 14:02:00,40.4,40.4,30.03,NNW,338,0.0,0.0,100,0.04,,,0.21,WSDL version 423,2013-02-25 19:02:00,
2013-02-25 14:12:00,41.2,41.2,30.03,NNW,338,0.0,0.0,100,0.08,,,0.25,WSDL version 423,2013-02-25 19:12:00,
2013-02-25 14:22:00,41.9,41.9,30.03,NNW,338,0.0,3.1,100,0.08,,,0.25,WSDL version 423,2013-02-25 19:22:00,
2013-02-25 14:32:00,39.8,39.8,30.03,NNW,338,0.0,0.0,100,0.08,,,0.25,WSDL version 423,2013-02-25 19:32:00,
2013-02-25 14:42:00,38.7,38.7,30.04,NNW,338,0.0,0.0,100,-99.99,,,-99.99,WSDL version 423,2013-02-25 19:42:00,
2013-02-25 14:52:00,37.9,37.9,30.04,NNW,338,0.0,0.0,100,0.04,,,0.25,WSDL version 423,2013-02-25 19:52:00,
2013-02-25 15:02:00,37.4,37.4,30.04,NNW,338,0.0,0.0,100,0.08,,,0.29,WSDL version 423,2013-02-25 20:02:00,
2013-02-25 15:12:00,37.2,37.2,30.05,NNW,338,0.0,0.0,100,0.04,,,0.29,WSDL version 423,2013-02-25 20:12:00,
2013-02-25 15:22:00,37.1,37.1,30.05,NNW,338,0.0,0.0,100,0.04,,,0.29,WSDL version 423,2013-02-25 20:22:00,
2013-02-25 15:32:00,37.2,37.2,30.05,NNW,338,0.0,0.0,100,0.04,,,0.29,WSDL version 423,2013-02-25 20:32:00,
2013-02-25 15:42:00,36.9,36.9,30.05,NNW,338,0.0,0.0,100,0.04,,,0.29,WSDL version 423,2013-02-25 20:42:00,
2013-02-25 15:52:00,36.8,36.8,30.05,NNW,338,0.0,0.0,100,0.04,,,0.29,WSDL version 423,2013-02-25 20:52:00,
2013-02-25 16:02:00,36.7,36.7,30.05,NNW,338,0.0,0.0,100,0.00,,,0.29,WSDL version 423,2013-02-25 21:02:00,
2013-02-25 16:12:00,36.5,36.5,30.05,NNW,338,0.0,0.0,100,0.04,,,0.33,WSDL version 423,2013-02-25 21:12:00,
2013-02-25 16:22:00,36.1,36.1,30.06,NNW,338,0.0,0.0,100,0.04,,,0.33,WSDL version 423,2013-02-25 21:22:00,
2013-02-25 16:32:00,36.0,36.0,30.06,NNW,338,0.0,0.0,100,0.04,,,0.33,WSDL version 423,2013-02-25 21:32:00,
2013-02-25 16:42:00,35.8,35.8,30.06,NNW,338,0.0,0.0,100,0.04,,,0.33,WSDL version 423,2013-02-25 21:42:00,
2013-02-25 16:52:00,35.5,35.5,30.06,NNW,338,0.0,0.0,100,0.04,,,0.33,WSDL version 423,2013-02-25 21:52:00,
2013-02-25 17:02:00,35.3,35.3,30.06,NNW,338,0.0,0.0,100,0.04,,,0.33,WSDL version 423,2013-02-25 22:02:00,
2013-02-25 17:12:00,35.1,35.1,30.07,NNW,338,0.0,0.0,100,0.00,,,0.33,WSDL version 423,2013-02-25 22:12:00,
2013-02-25 17:22:00,34.9,34.9,30.07,NNW,338,0.0,0.0,100,0.00,,,0.33,WSDL version 423,2013-02-25 22:22:00,
2013-02-25 17:32:00,34.5,34.5,30.07,NNW,338,0.0,0.0,100,0.00,,,0.33,WSDL version 423,2013-02-25 22:32:00,
2013-02-25 17:42:00,34.3,34.3,30.08,NNW,338,0.0,0.0,100,0.00,,,0.33,WSDL version 423,2013-02-25 22:42:00,
2013-02-25 17:52:00,34.2,34.2,30.07,NNW,338,0.0,0.0,100,0.00,,,0.33,WSDL version 423,2013-02-25 22:52:00,
2013-02-25 18:02:00,34.0,34.0,30.08,NNW,338,0.0,0.0,100,0.00,,,0.33,WSDL version 423,2013-02-25 23:02:00,
2013-02-25 18:12:00,33.8,33.8,30.07,NNW,338,0.0,0.0,100,0.00,,,0.33,WSDL version 423,2013-02-25 23:12:00,
2013-02-25 18:22:00,33.6,33.6,30.08,NNW,338,0.0,0.0,100,0.00,,,0.33,WSDL version 423,2013-02-25 23:22:00,
2013-02-25 18:32:00,33.6,33.6,30.09,NNW,338,0.0,0.0,100,0.00,,,0.33,WSDL version 423,2013-02-25 23:32:00,
2013-02-25 18:42:00,33.4,33.4,30.08,NNW,338,0.0,0.0,100,0.00,,,0.33,WSDL version 423,2013-02-25 23:42:00,
2013-02-25 18:52:00,33.4,33.4,30.09,NNW,338,0.0,0.0,100,0.00,,,0.33,WSDL version 423,2013-02-25 23:52:00,
2013-02-25 19:02:00,33.3,33.3,30.09,NNW,338,0.0,0.0,100,0.00,,,0.33,WSDL version 423,2013-02-26 00:02:00,
2013-02-25 19:12:00,33.3,33.3,30.10,NNW,338,0.0,0.0,100,0.00,,,0.33,WSDL version 423,2013-02-26 00:12:00,
2013-02-25 19:22:00,33.3,33.3,30.11,NNW,338,0.0,0.0,100,0.00,,,0.33,WSDL version 423,2013-02-26 00:22:00,
2013-02-25 19:32:00,33.3,33.3,30.11,NNW,338,0.0,0.0,100,0.00,,,0.33,WSDL version 423,2013-02-26 00:32:00,
2013-02-25 19:42:00,33.3,33.3,30.11,NNW,338,0.0,0.0,100,0.00,,,0.33,WSDL version 423,2013-02-26 00:42:00,
2013-02-25 19:52:00,33.2,33.2,30.11,NNW,338,0.0,0.0,100,0.00,,,0.33,WSDL version 423,2013-02-26 00:52:00,
2013-02-25 20:02:00,33.1,33.1,30.11,NNW,338,0.0,0.0,100,0.00,,,0.33,WSDL version 423,2013-02-26 01:02:00,
2013-02-25 20:12:00,32.9,32.9,30.12,NNW,338,0.0,0.0,100,0.00,,,0.33,WSDL version 423,2013-02-26 01:12:00,
2013-02-25 20:22:00,32.9,32.9,30.12,NNW,338,0.0,0.0,100,0.00,,,0.33,WSDL version 423,2013-02-26 01:22:00,
2013-02-25 20:32:00,32.7,32.7,30.11,NNW,338,0.0,0.0,100,0.00,,,0.33,WSDL version 423,2013-02-26 01:32:00,
2013-02-25 20:42:00,32.7,32.7,30.11,NNW,338,0.0,0.0,100,0.00,,,0.33,WSDL version 423,2013-02-26 01:42:00,
2013-02-25 20:52:00,32.7,32.7,30.12,NNW,338,0.0,0.0,100,0.00,,,0.33,WSDL version 423,2013-02-26 01:52:00,
2013-02-25 21:02:00,32.7,32.7,30.12,NNW,338,0.0,0.0,100,0.00,,,0.33,WSDL version 423,2013-02-26 02:02:00,
2013-02-25 21:12:00,32.7,32.7,30.12,NNW,338,0.0,0.0,100,0.00,,,0.33,WSDL version 423,2013-02-26 02:12:00,
2013-02-25 21:22:00,32.5,32.5,30.12,NNW,338,0.0,0.0,100,0.00,,,0.33,WSDL version 423,2013-02-26 02:22:00,
2013-02-25 21:32:00,32.5,32.5,30.12,NNW,338,0.0,0.0,100,0.00,,,0.33,WSDL version 423,2013-02-26 02:32:00,
2013-02-25 21:42:00,32.4,32.4,30.12,NNW,338,0.0,0.0,100,0.00,,,0.33,WSDL version 423,2013-02-26 02:42:00,
2013-02-25 21:52:00,32.4,32.4,30.12,NNW,338,0.0,0.0,100,0.00,,,0.33,WSDL version 423,2013-02-26 02:52:00,
2013-02-25 22:02:00,32.4,32.4,30.11,NNW,338,0.0,0.0,100,0.00,,,0.33,WSDL version 423,2013-02-26 03:02:00,
2013-02-25 22:12:00,32.3,32.3,30.11,NNW,338,0.0,0.0,100,0.00,,,0.33,WSDL version 423,2013-02-26 03:12:00,
2013-02-25 22:22:00,32.0,32.0,30.12,NNW,338,0.0,0.0,100,0.00,,,0.33,WSDL version 423,2013-02-26 03:22:00,
2013-02-25 22:32:00,31.6,31.6,30.11,NNW,338,0.0,0.0,100,0.00,,,0.33,WSDL version 423,2013-02-26 03:32:00,
2013-02-25 22:42:00,31.6,31.6,30.11,NNW,338,0.0,0.0,100,0.00,,,0.33,WSDL version 423,2013-02-26 03:42:00,
2013-02-25 22:52:00,31.5,31.5,30.12,NNW,338,0.0,0.0,100,0.00,,,0.33,WSDL version 423,2013-02-26 03:52:00,
2013-02-25 23:02:00,31.3,31.3,30.12,NNW,338,0.0,0.0,100,0.00,,,0.33,WSDL version 423,2013-02-26 04:02:00,
2013-02-25 23:12:00,31.1,31.1,30.12,NNW,338,0.0,0.0,100,0.00,,,0.33,WSDL version 423,2013-02-26 04:12:00,
2013-02-25 23:22:00,31.0,31.0,30.12,NNW,338,0.0,0.0,100,0.00,,,0.33,WSDL version 423,2013-02-26 04:22:00,
2013-02-25 23:32:00,30.9,30.9,30.12,NNW,338,0.0,0.0,100,0.00,,,0.33,WSDL version 423,2013-02-26 04:32:00,
2013-02-25 23:42:00,30.5,30.5,30.13,NNW,338,0.0,0.0,100,0.00,,,0.33,WSDL version 423,2013-02-26 04:42:00,
2013-02-25 23:52:00,30.3,30.3,30.13,NNW,338,0.0,0.0,100,0.00,,,0.33,WSDL version 423,2013-02-26 04:52:00,